Aérodrome :
LOGIN :

S'inscrire | Disclaimer

   EN    FR    IT 

 










Légende :    VFR   VFR Marginal   IFR   IFR Intensif   IFR Très Intensif
Visi : 
Plafond : 
>= 8 km
>= 3000ft
5 à 8 km
1000 à 3000 ft
1500m à 5 km
500 à 1000 ft
800 à 1500m
200 à 500 ft
< 800m
< 200 ft
Symboles :   Orages  Brouillard  Fortes neiges  Fortes précipitations  Vent > 20 kt
SIGMETs :   Divers  Orages  Givrage  Turbulence  Onde Orograph.  Cendres Volcan.







- Altitude de l'aérodrome : 266 ft
- Code IATA : NCL
- Voir les cartes d'approche


EGNT - Newcastle

DERNIER METAR :
  • 231450Z 21008KT 9999 FEW024 15/12 Q1011

METARs EXPIRÉS :
  • 231420Z 18007KT 150V210 9999 FEW022 15/12 Q1011
  • 231350Z 18008KT 140V210 9999 SCT026 15/11 Q1010
  • 231320Z 18007KT 140V210 9999 FEW015 14/11 Q1011
  • 231250Z 18009KT 140V210 9999 FEW015 14/10 Q1011
  • 231220Z 17006KT 120V210 9999 FEW011 13/10 Q1011

TAF TAF EGNT
Valide du 23 à 12h jusqu'au 24 à 12h UTC


231104Z 2312/2412 17006KT 9999 SCT025
BECMG 2312/2315 24010KT
TEMPO 2312/2314 6000 RA BKN006
BECMG 2404/2407 17012KT
PROB40
TEMPO 2408/2412 6000 RA -RADZ BKN012
TEMPO 2410/2412 22015G25KT
ATIS : +44 191 214 3400
Pas de NOTAMs connus pour ce terrain.



MET'MAP, la Météo Aéronautique d'un coup d'oeil ! - Copyright ORBIFLY Décembre 2007 - Disclaimer

ORBIFLY MET'MAP TEAM :

Programmation & Développement : Alexandra Zaïnal
Conception & Développement : Baudouin d'Aumeries
Co-Programmation & Développement : Marc-Olivier Méhu
Soutien technique & logistique : Manuel Goepfert

Contact : metmap@orbifly.com




SOURCES & CREDITS :

   NOAA